Bei Facebook empfehlenBei Twitter postenGoogle plusPinterest

Das Wetter im Erzgebirge am 17.03.2016

Wetter und Klima am 17.03.2016 Holzhau im Erzgebirge (630m ü.NN)
Letzte gemessene Temperatur und Uhrzeit der Messung23:45:00 Uhr-3.00 °C
Temperatur (Maximum / Höchstwert) und Uhrzeit der Messung15:00:00 Uhr11.80 °C
Temperatur (Minimum / Tiefstwert) und Uhrzeit der Messung23:45:00-3.00 °C
Errechneter Absolutwert der Temperaturschwankungen zwischen Tmin und Tmax des Tages14.80 K
Errechnete Tagesmitteltemperatur2.82083 °C
Gesamt - Niederschlag des Tages (in flüssiger Form)0.00 Liter / m²
Luftdruck (Maximum / Höchstwert) und Zeitpunkt der Messung00:30:00 Uhr1024.20 hPa
Luftdruck (Minimum / Tiefstwert) und Zeitpunkt der Messung23:45:00 Uhr1018.00 hPa
Errechneter Absolutwert der Luftdruckschwankungen des Tages6.20 hPa
Höchste gemessene Windgeschwindigkeit und Uhrzeit der Messung11:15:00 Uhr14.04 km/h
Errechnete Windhäufigkeit in Relation zu den Messwerten des Tages28.12500 %
Niedrigste Windkühle (Windchill) und Zeitpunkt der Messung20:30:00 Uhr-4.20 °C
Taupunkt (Maximum / Höchstwert) und Uhrzeit der Messung10:15:00 Uhr3.80 °C
Taupunkt (Minimum / Tiefstwert) und Uhrzeit der Messung23:45:00-5.20 °C
Anzahl der automatisch eingelesenen Messwerte 96

Detaillierte Wetter- und Klima- Messwerte für den 17.03.2016 in Holzhau im Erzgebirge (630m ü.NN)
ZeitTemperaturLuftdruckRel. LuftfeuchteWindWindrichtungWindchillTaupunktNiederschlag l/m²
23:45:00-3.00 °C1018.00 hPa86.00 %-5.20 °C 
23:30:00-2.90 °C1018.10 hPa86.00 %-5.10 °C 
23:15:00-2.70 °C1018.20 hPa86.00 %-5.00 °C 
23:00:00-2.60 °C1018.30 hPa86.00 %-4.90 °C 
22:45:00-2.50 °C1018.50 hPa85.00 %-4.90 °C 
22:30:00-2.10 °C1018.50 hPa85.00 %-4.50 °C 
22:15:00-2.10 °C1018.40 hPa85.00 %-4.50 °C 
22:00:00-1.90 °C1018.50 hPa85.00 %4.32 km/hO-1.90 °C-4.30 °C 
21:45:00-1.90 °C1018.70 hPa84.00 %-4.50 °C 
21:30:00-2.10 °C1018.90 hPa83.00 %4.32 km/hSO-2.10 °C-4.90 °C 
21:15:00-1.80 °C1018.90 hPa83.00 %-4.60 °C 
21:00:00-1.60 °C1018.80 hPa82.00 %2.16 km/hSO-1.60 °C-4.60 °C 
20:45:00-1.60 °C1018.90 hPa82.00 %-4.60 °C 
20:30:00-1.50 °C1019.10 hPa80.00 %7.20 km/hO-4.20 °C-4.80 °C 
20:15:00-1.20 °C1019.00 hPa80.00 %-4.60 °C 
20:00:00-0.90 °C1019.00 hPa79.00 %-4.50 °C 
19:45:00-0.50 °C1019.20 hPa78.00 %-4.30 °C 
19:30:00-0.10 °C1019.30 hPa77.00 %7.20 km/hOSO-2.60 °C-4.10 °C 
19:15:000.30 °C1019.30 hPa76.00 %-3.40 °C 
19:00:000.80 °C1019.40 hPa74.00 %-3.30 °C 
18:45:001.30 °C1019.50 hPa72.00 %-3.20 °C 
18:30:002.20 °C1019.50 hPa70.00 %-2.70 °C 
18:15:003.50 °C1019.70 hPa68.00 %-1.80 °C 
18:00:004.70 °C1019.50 hPa66.00 %-1.10 °C 
17:45:006.20 °C1019.60 hPa64.00 %-0.10 °C 
17:30:007.60 °C1019.70 hPa62.00 %0.80 °C 
17:15:008.80 °C1019.90 hPa60.00 %1.50 °C 
17:00:009.60 °C1020.10 hPa59.00 %2.00 °C 
16:45:0010.20 °C1020.20 hPa59.00 %2.60 °C 
16:30:0010.60 °C1020.20 hPa57.00 %2.40 °C 
16:15:0011.20 °C1020.40 hPa56.00 %2.80 °C 
16:00:0011.40 °C1020.50 hPa57.00 %3.20 °C 
15:45:0011.40 °C1020.70 hPa56.00 %2.90 °C 
15:30:0011.60 °C1021.00 hPa55.00 %2.90 °C 
15:15:0011.60 °C1021.00 hPa55.00 %2.90 °C 
15:00:0011.80 °C1021.10 hPa55.00 %3.10 °C 
14:45:0011.40 °C1021.20 hPa57.00 %3.20 °C 
14:30:0011.10 °C1021.50 hPa58.00 %3.20 °C 
14:15:0010.80 °C1021.90 hPa59.00 %3.10 °C 
14:00:0010.40 °C1022.20 hPa60.00 %3.00 °C 
13:45:0010.50 °C1022.10 hPa61.00 %3.30 °C 
13:30:0010.10 °C1022.10 hPa63.00 %3.40 °C 
13:15:009.80 °C1022.20 hPa64.00 %8.28 km/hSW8.70 °C3.30 °C 
13:00:009.40 °C1022.50 hPa65.00 %3.20 °C 
12:45:008.90 °C1022.70 hPa66.00 %2.90 °C 
12:30:008.80 °C1022.90 hPa66.00 %2.80 °C 
12:15:008.60 °C1023.10 hPa69.00 %3.20 °C 
12:00:007.90 °C1023.00 hPa70.00 %6.84 km/hSSO6.80 °C2.80 °C 
11:45:007.40 °C1023.20 hPa72.00 %2.70 °C 
11:30:007.30 °C1023.20 hPa74.00 %3.96 km/hOSO7.30 °C3.00 °C 
11:15:007.10 °C1023.50 hPa75.00 %14.04 km/hSO4.50 °C3.00 °C 
11:00:006.80 °C1023.40 hPa77.00 %3.10 °C 
10:45:006.40 °C1023.50 hPa79.00 %3.00 °C 
10:30:006.30 °C1023.40 hPa81.00 %7.20 km/hSW4.90 °C3.30 °C 
10:15:006.30 °C1023.40 hPa84.00 %7.20 km/hSSO4.90 °C3.80 °C 
10:00:005.90 °C1023.40 hPa86.00 %3.70 °C 
09:45:005.40 °C1023.40 hPa89.00 %3.70 °C 
09:30:004.70 °C1023.30 hPa90.00 %3.20 °C 
09:15:004.10 °C1023.20 hPa91.00 %2.80 °C 
09:00:003.50 °C1023.30 hPa92.00 %2.30 °C 
08:45:002.80 °C1023.40 hPa93.00 %1.80 °C 
08:30:001.80 °C1023.30 hPa93.00 %0.80 °C 
08:15:000.90 °C1023.20 hPa93.00 %6.84 km/hOSO-1.30 °C-0.10 °C 
08:00:000.00 °C1023.30 hPa93.00 %4.32 km/hOSO0.00 °C-1.10 °C 
07:45:00-1.10 °C1023.30 hPa92.00 %-2.40 °C 
07:30:00-1.80 °C1023.10 hPa92.00 %-3.10 °C 
07:15:00-2.10 °C1023.20 hPa92.00 %1.80 km/hOSO-2.10 °C-3.40 °C 
07:00:00-2.40 °C1023.20 hPa92.00 %-3.70 °C 
06:45:00-2.20 °C1023.30 hPa92.00 %-3.50 °C 
06:30:00-1.80 °C1023.30 hPa91.00 %-3.20 °C 
06:15:00-1.50 °C1023.20 hPa91.00 %-2.90 °C 
06:00:00-1.40 °C1023.20 hPa91.00 %3.60 km/hOSO-1.40 °C-2.80 °C 
05:45:00-1.30 °C1023.10 hPa91.00 %-2.70 °C 
05:30:00-1.20 °C1023.10 hPa91.00 %-2.60 °C 
05:15:00-1.10 °C1023.30 hPa91.00 %-2.50 °C 
05:00:00-1.10 °C1023.30 hPa91.00 %-2.50 °C 
04:45:00-0.90 °C1023.40 hPa91.00 %-2.30 °C 
04:30:00-0.70 °C1023.30 hPa91.00 %-2.10 °C 
04:15:00-0.50 °C1023.30 hPa91.00 %-1.90 °C 
04:00:00-0.40 °C1023.40 hPa91.00 %6.48 km/hOSO-2.70 °C-1.80 °C 
03:45:00-0.40 °C1023.30 hPa91.00 %9.72 km/hO-3.70 °C-1.80 °C 
03:30:00-0.10 °C1023.40 hPa91.00 %-1.50 °C 
03:15:00-0.10 °C1023.40 hPa91.00 %5.40 km/hSO-1.90 °C-1.50 °C 
03:00:00-0.10 °C1023.30 hPa91.00 %6.12 km/hOSO-2.20 °C-1.50 °C 
02:45:000.00 °C1023.40 hPa91.00 %10.80 km/hSO-3.50 °C-1.40 °C 
02:30:000.00 °C1023.40 hPa91.00 %-1.40 °C 
02:15:00-0.10 °C1023.50 hPa91.00 %4.32 km/hSO-0.10 °C-1.50 °C 
02:00:00-0.10 °C1023.70 hPa91.00 %-1.50 °C 
01:45:00-0.10 °C1023.80 hPa91.00 %10.80 km/hO-3.60 °C-1.50 °C 
01:30:00-0.20 °C1023.80 hPa91.00 %3.24 km/hOSO-0.20 °C-1.60 °C 
01:15:00-0.40 °C1023.90 hPa91.00 %-1.80 °C 
01:00:00-0.40 °C1024.10 hPa91.00 %6.48 km/hO-2.70 °C-1.80 °C 
00:45:00-0.40 °C1024.10 hPa91.00 %3.24 km/hOSO-0.40 °C-1.80 °C 
00:30:00-0.40 °C1024.20 hPa91.00 %-1.80 °C 
00:15:00-0.50 °C1024.10 hPa90.00 %3.96 km/hOSO-0.50 °C-2.10 °C 
00:00:00-0.60 °C1024.20 hPa90.00 %3.60 km/hOSO-0.60 °C-2.20 °C 

Permanenter Link zu dieser Seite: Wetter im Erzgebirge am 17.03.2016
Performance-Info: Die Erstellung der Seite / Statistik(en) / Tabelle(n) erforderte 5 Datenbankserver-Abfrage(n) und dauerte 100 Millisekunden. (Dieser Messwert ist von der Gesamt-Auslastung des Servers abhängig.)
Erzgebirge - Wetter | Erzgebirge - Wetter (Mobilgeräte) | Komplette Klimadatenbank